Terminal Aerodrome Forecast
Issued by NWS

Home | Current Version | Previous Version | Text Only | Print | Product List | Glossary On
Versions: 1 2 3 4 5 6 7 8 9 10 11 12 13 14 15 16
000
FTUS43 KMQT 272334
TAFSAW
TAF
KSAW 272334Z 2800/2824 30007KT 5SM -SHRA OVC015
     FM280100 34005KT P6SM BKN025
     FM280400 02005KT 6SM -SHRA OVC015
     FM280800 04007KT 6SM BR VCSH OVC008
     FM281100 04008KT P6SM VCSH BKN010
     FM281500 04011G18KT P6SM VCSH BKN015
     FM281800 03011G18KT P6SM OVC025=

USA.gov is the U.S. government's official web portal to all federal, state and local government web resources and services.